Time;durP1;ratioP1;P1;durP2;ratioP2;P2;SDS_P1;SDS_P2;PMS_P1;PMS_P2;Temp;Humidity;BMP_temperature;BMP_pressure;BME280_temperature;BME280_humidity;BME280_pressure;Samples;Min_cycle;Max_cycle;Signal;HPM_P1;HPM_P2
2021/07/28 00:00:33;;;;;;;7.10;3.72;;;;;;;25.32;43.17;100232.02;1752583;80;21115;-80
2021/07/28 00:03:00;;;;;;;9.28;4.30;;;;;;;25.28;43.40;100238.06;1778624;80;21031;-80
2021/07/28 00:05:26;;;;;;;8.78;3.87;;;;;;;25.20;43.58;100234.31;1760979;80;21008;-80
2021/07/28 00:07:53;;;;;;;7.35;4.08;;;;;;;25.14;43.86;100235.19;1782268;80;21034;-80
2021/07/28 00:10:20;;;;;;;7.08;4.17;;;;;;;25.05;44.28;100235.45;1765984;80;22487;-80
2021/07/28 00:12:46;;;;;;;10.23;4.47;;;;;;;24.96;44.86;100237.27;1725511;83;20933;-80
2021/07/28 00:15:13;;;;;;;9.73;4.33;;;;;;;24.85;45.52;100236.09;1736033;81;21439;-80
2021/07/28 00:17:52;;;;;;;6.85;4.17;;;;;;;24.75;45.92;100233.87;1773269;80;20999;-80
2021/07/28 00:20:25;;;;;;;9.70;4.30;;;;;;;24.64;46.37;100226.47;1753906;80;21056;-80
2021/07/28 00:25:28;;;;;;;7.08;4.62;;;;;;;24.47;47.40;100225.31;1755734;81;21007;-79
2021/07/28 00:27:54;;;;;;;11.48;4.87;;;;;;;24.37;48.03;100216.33;1746031;81;20963;-80
2021/07/28 00:30:22;;;;;;;10.15;4.92;;;;;;;24.31;48.25;100213.63;1735454;80;20956;-79
2021/07/28 00:32:48;;;;;;;6.47;4.62;;;;;;;24.23;48.68;100210.67;1755957;80;20992;-80
2021/07/28 00:35:15;;;;;;;6.40;4.70;;;;;;;24.16;49.30;100208.00;1737719;80;21783;-80
2021/07/28 00:37:44;;;;;;;10.55;4.80;;;;;;;24.10;49.09;100210.72;1728519;82;21045;-80
2021/07/28 00:40:12;;;;;;;6.37;5.03;;;;;;;24.04;49.04;100207.02;1749119;81;21059;-80
2021/07/28 00:42:39;;;;;;;8.80;5.30;;;;;;;23.98;49.45;100193.85;1766700;80;21437;-79
2021/07/28 00:45:06;;;;;;;9.03;4.97;;;;;;;23.92;49.67;100193.34;1752142;80;21020;-79
2021/07/28 00:47:33;;;;;;;5.97;4.92;;;;;;;23.87;50.06;100197.22;1761434;80;22871;-79
2021/07/28 00:50:02;;;;;;;6.60;5.03;;;;;;;23.82;50.64;100202.41;1776905;80;21453;-79
2021/07/28 00:52:29;;;;;;;8.05;5.80;;;;;;;23.80;51.03;100195.58;1754766;81;21005;-79
2021/07/28 00:54:56;;;;;;;8.98;6.25;;;;;;;23.75;51.42;100191.36;1755604;81;21008;-79
2021/07/28 00:57:22;;;;;;;9.15;6.10;;;;;;;23.70;51.52;100185.23;1761835;80;20964;-79
2021/07/28 00:59:49;;;;;;;11.60;6.95;;;;;;;23.66;51.84;100188.89;1725404;83;21756;-79
2021/07/28 01:02:16;;;;;;;11.65;6.80;;;;;;;23.61;51.70;100190.02;1761924;80;20937;-79
2021/07/28 01:04:42;;;;;;;8.70;6.20;;;;;;;23.57;51.92;100188.77;1737600;82;20952;-80
2021/07/28 01:07:08;;;;;;;13.60;7.12;;;;;;;23.53;52.42;100181.30;1677986;80;21042;-79
2021/07/28 01:09:35;;;;;;;13.48;7.12;;;;;;;23.49;53.16;100185.47;1786462;80;20953;-79
2021/07/28 01:12:04;;;;;;;16.20;7.42;;;;;;;23.43;53.17;100185.78;1766769;80;21866;-79
2021/07/28 01:14:31;;;;;;;11.90;7.67;;;;;;;23.40;53.54;100182.16;1697345;82;21024;-79
2021/07/28 01:16:58;;;;;;;12.23;7.37;;;;;;;23.38;53.97;100179.68;1760453;80;20996;-79
2021/07/28 01:19:29;;;;;;;13.18;6.50;;;;;;;23.34;53.84;100187.03;1745834;80;21352;-79
2021/07/28 01:21:57;;;;;;;9.53;6.67;;;;;;;23.27;53.91;100193.80;1753305;80;20957;-80
2021/07/28 01:24:23;;;;;;;13.62;7.00;;;;;;;23.19;54.37;100189.14;1779777;80;22207;-81
2021/07/28 01:26:50;;;;;;;10.80;6.45;;;;;;;23.11;54.82;100182.09;1755798;80;21011;-80
2021/07/28 01:29:17;;;;;;;13.45;7.10;;;;;;;23.04;55.19;100183.43;1753553;80;21345;-81
2021/07/28 01:31:43;;;;;;;10.10;7.45;;;;;;;22.97;55.58;100186.66;1771891;80;20967;-81
2021/07/28 01:34:12;;;;;;;12.53;7.47;;;;;;;22.94;55.78;100188.92;1757267;80;21023;-81
2021/07/28 01:36:39;;;;;;;15.00;8.50;;;;;;;22.90;56.09;100185.83;1748097;82;21864;-80
2021/07/28 01:39:06;;;;;;;13.18;8.10;;;;;;;22.89;56.01;100183.34;1774236;80;20945;-80
2021/07/28 01:41:33;;;;;;;10.80;7.70;;;;;;;22.87;56.02;100175.97;1771876;80;20968;-80
2021/07/28 01:44:00;;;;;;;13.93;7.65;;;;;;;22.83;56.09;100180.39;1751618;80;20994;-80
2021/07/28 01:46:26;;;;;;;13.15;7.55;;;;;;;22.83;56.43;100180.39;1755913;80;20996;-80
2021/07/28 01:48:53;;;;;;;11.22;8.08;;;;;;;22.81;56.69;100181.12;1778567;80;21794;-80
2021/07/28 01:51:19;;;;;;;11.00;7.90;;;;;;;22.81;56.75;100186.52;1757586;80;21008;-80
2021/07/28 01:53:45;;;;;;;11.60;8.28;;;;;;;22.82;57.14;100189.52;1740191;80;20987;-80
2021/07/28 01:56:13;;;;;;;14.80;7.95;;;;;;;22.83;56.90;100186.30;1736372;80;21415;-80
2021/07/28 01:58:43;;;;;;;15.90;8.33;;;;;;;22.83;56.76;100179.57;1780603;80;21369;-80
2021/07/28 02:01:09;;;;;;;12.80;8.95;;;;;;;22.84;56.76;100178.56;1768659;80;22227;-80
2021/07/28 02:03:35;;;;;;;13.18;8.43;;;;;;;22.83;56.69;100179.05;1752010;80;20997;-80
2021/07/28 02:06:03;;;;;;;13.58;8.05;;;;;;;22.83;56.59;100177.70;1743566;82;20942;-80
2021/07/28 02:08:29;;;;;;;13.43;8.53;;;;;;;22.84;56.40;100187.47;1743778;80;21025;-80
2021/07/28 02:10:56;;;;;;;13.93;7.92;;;;;;;22.84;56.22;100179.91;1761149;80;21408;-80
2021/07/28 02:13:23;;;;;;;11.90;7.75;;;;;;;22.85;56.03;100183.73;1737953;80;21830;-80
2021/07/28 02:15:50;;;;;;;13.85;8.20;;;;;;;22.87;55.99;100188.91;1752329;80;21048;-80
2021/07/28 02:18:17;;;;;;;10.60;7.97;;;;;;;22.86;56.08;100184.56;1734877;81;21023;-80
2021/07/28 02:20:44;;;;;;;16.48;8.25;;;;;;;22.87;56.16;100185.39;1769206;80;20969;-80
2021/07/28 02:23:11;;;;;;;14.65;7.70;;;;;;;22.87;56.24;100186.22;1780679;80;20957;-80
2021/07/28 02:25:38;;;;;;;12.18;8.23;;;;;;;22.89;56.17;100183.34;1770571;80;21851;-80
2021/07/28 02:28:05;;;;;;;10.90;8.20;;;;;;;22.89;56.37;100182.83;1771189;80;20961;-80
2021/07/28 02:30:32;;;;;;;14.93;8.25;;;;;;;22.89;56.46;100175.27;1734895;82;20993;-80
2021/07/28 02:32:58;;;;;;;13.03;7.65;;;;;;;22.89;56.40;100173.92;1756175;80;21047;-80
2021/07/28 02:35:25;;;;;;;10.63;7.78;;;;;;;22.91;56.33;100174.53;1763560;80;20941;-81
2021/07/28 02:37:52;;;;;;;15.55;8.15;;;;;;;22.89;56.41;100177.44;1750064;82;21803;-79
2021/07/28 02:40:19;;;;;;;10.43;8.00;;;;;;;22.90;56.29;100178.27;1749645;82;21493;-78
2021/07/28 02:42:46;;;;;;;11.97;7.70;;;;;;;22.90;56.49;100176.92;1754975;80;21004;-78
2021/07/28 02:45:12;;;;;;;11.22;7.65;;;;;;;22.91;56.72;100178.58;1759470;80;21420;-78
2021/07/28 02:47:39;;;;;;;16.23;8.30;;;;;;;22.90;56.64;100175.58;1748132;80;21047;-77
2021/07/28 02:50:06;;;;;;;17.57;8.25;;;;;;;22.91;56.66;100169.97;1766127;80;21848;-73
2021/07/28 02:52:33;;;;;;;14.13;8.15;;;;;;;22.92;56.29;100164.89;1776172;80;20941;-75
2021/07/28 02:55:05;;;;;;;13.80;7.92;;;;;;;22.93;56.29;100160.34;1772569;80;20989;-76
2021/07/28 02:57:28;;;;;;;12.63;8.25;;;;;;;22.94;56.36;100161.99;1758572;80;21035;-75
2021/07/28 02:59:55;;;;;;;16.62;8.25;;;;;;;22.95;56.66;100161.78;1735857;81;21011;-75
2021/07/28 03:02:21;;;;;;;11.03;7.92;;;;;;;22.95;56.42;100160.95;1737369;82;21830;-75
2021/07/28 03:04:48;;;;;;;17.07;8.30;;;;;;;22.94;56.16;100148.00;1737408;82;20999;-75
2021/07/28 03:07:14;;;;;;;14.35;8.20;;;;;;;22.93;56.15;100152.25;1737551;82;20967;-75
2021/07/28 03:09:41;;;;;;;15.68;7.97;;;;;;;22.93;56.21;100152.25;1737170;82;21003;-75
2021/07/28 03:12:08;;;;;;;12.40;8.23;;;;;;;22.92;56.31;100157.34;1733324;82;21089;-75
2021/07/28 03:14:35;;;;;;;12.43;7.83;;;;;;;22.92;56.07;100155.98;1725691;81;21820;-75
2021/07/28 03:17:01;;;;;;;14.18;7.75;;;;;;;22.89;55.90;100154.55;1704723;83;21051;-75
2021/07/28 03:19:27;;;;;;;10.82;7.60;;;;;;;22.88;55.89;100157.45;1696409;84;21040;-75
2021/07/28 03:21:54;;;;;;;17.90;8.38;;;;;;;22.89;55.97;100159.11;1704890;82;21010;-75
2021/07/28 03:24:21;;;;;;;14.47;8.48;;;;;;;22.89;55.99;100158.59;1705084;84;21057;-75
2021/07/28 03:26:47;;;;;;;12.60;7.90;;;;;;;22.90;56.00;100160.24;1705040;82;22785;-75
2021/07/28 03:29:13;;;;;;;12.80;7.75;;;;;;;22.91;55.86;100170.49;1704965;82;20967;-77
2021/07/28 03:31:40;;;;;;;11.28;8.15;;;;;;;22.89;55.77;100179.30;1705111;84;21017;-75
2021/07/28 03:34:07;;;;;;;18.35;8.10;;;;;;;22.87;55.84;100180.00;1704621;83;20984;-75
2021/07/28 03:36:33;;;;;;;14.95;8.15;;;;;;;22.83;56.01;100185.78;1704677;84;21063;-75
2021/07/28 03:38:59;;;;;;;17.25;8.40;;;;;;;22.81;56.11;100173.05;1705012;84;21797;-75
2021/07/28 03:41:26;;;;;;;16.60;8.70;;;;;;;22.82;56.32;100183.30;1705062;84;21046;-75
2021/07/28 03:43:53;;;;;;;13.83;8.73;;;;;;;22.77;56.70;100221.59;1705158;82;21383;-77
2021/07/28 03:46:19;;;;;;;13.00;8.60;;;;;;;22.71;56.59;100198.72;1705366;84;21038;-75
2021/07/28 03:48:46;;;;;;;17.60;8.33;;;;;;;22.70;56.33;100191.69;1705309;84;20991;-75
2021/07/28 03:51:13;;;;;;;14.55;8.68;;;;;;;22.71;56.57;100207.63;1710216;83;21837;-75
2021/07/28 03:53:40;;;;;;;13.03;8.73;;;;;;;22.71;56.56;100195.52;1704974;84;21015;-75
2021/07/28 03:56:07;;;;;;;15.20;8.53;;;;;;;22.73;56.66;100174.59;1704939;84;21403;-75
2021/07/28 03:58:33;;;;;;;14.25;8.45;;;;;;;22.77;57.10;100178.52;1704931;84;21418;-75
2021/07/28 04:01:00;;;;;;;19.30;8.35;;;;;;;22.82;57.11;100177.91;1705249;83;21112;-74
2021/07/28 04:03:27;;;;;;;13.62;9.13;;;;;;;22.89;57.20;100168.53;1705112;83;21856;-77
2021/07/28 04:05:54;;;;;;;12.85;9.50;;;;;;;22.93;57.15;100167.07;1705301;84;21003;-76
2021/07/28 04:08:21;;;;;;;17.00;9.23;;;;;;;22.95;56.96;100160.95;1704543;82;21012;-75
2021/07/28 04:10:48;;;;;;;16.37;9.28;;;;;;;23.02;57.29;100169.34;1701865;84;21127;-75
2021/07/28 04:13:15;;;;;;;16.48;9.00;;;;;;;23.08;57.13;100171.73;1735353;81;20969;-75
2021/07/28 04:15:42;;;;;;;17.62;9.78;;;;;;;23.12;57.04;100163.54;1750694;82;21851;-74
2021/07/28 04:18:09;;;;;;;17.30;9.60;;;;;;;23.18;57.21;100162.72;1750088;82;21006;-75
2021/07/28 04:20:37;;;;;;;15.68;9.35;;;;;;;23.22;56.76;100158.55;1745994;82;21310;-76
2021/07/28 04:23:04;;;;;;;14.70;9.53;;;;;;;23.27;56.70;100161.46;1745469;81;20969;-76
2021/07/28 04:25:30;;;;;;;20.77;10.08;;;;;;;23.32;57.20;100160.81;1745539;82;20999;-71
2021/07/28 04:27:57;;;;;;;13.68;9.30;;;;;;;23.35;57.38;100155.83;1748899;82;22254;-74
2021/07/28 04:30:24;;;;;;;18.05;9.70;;;;;;;23.38;57.19;100158.13;1713798;83;21099;-75
2021/07/28 04:32:50;;;;;;;15.00;9.85;;;;;;;23.38;56.86;100167.55;1712648;82;20995;-76
2021/07/28 04:35:16;;;;;;;19.20;9.23;;;;;;;23.39;56.86;100165.16;1687837;85;21029;-78
2021/07/28 04:37:43;;;;;;;15.18;9.45;;;;;;;23.41;57.02;100160.38;1684025;83;20977;-72
2021/07/28 04:40:12;;;;;;;15.75;9.43;;;;;;;23.41;57.42;100154.16;1696593;84;22692;-75
2021/07/28 04:42:39;;;;;;;14.87;9.75;;;;;;;23.39;57.54;100158.42;1693952;84;21589;-73
2021/07/28 04:45:06;;;;;;;21.05;10.65;;;;;;;23.36;57.73;100152.64;1697399;82;20965;-74
2021/07/28 04:47:34;;;;;;;16.65;10.03;;;;;;;23.37;58.00;100151.08;1682394;83;21003;-76
2021/07/28 04:50:01;;;;;;;15.25;10.00;;;;;;;23.37;58.30;100140.30;1694174;83;21053;-75
2021/07/28 04:52:27;;;;;;;19.90;10.72;;;;;;;23.41;58.73;100131.25;1682399;85;21785;-76
2021/07/28 04:54:54;;;;;;;15.05;10.23;;;;;;;23.45;58.42;100128.47;1682237;85;20966;-73
2021/07/28 04:57:21;;;;;;;16.02;9.58;;;;;;;23.44;58.39;100117.34;1694265;83;20965;-74
2021/07/28 04:59:47;;;;;;;14.83;10.05;;;;;;;23.46;58.26;100111.77;1692026;83;21083;-71
2021/07/28 05:02:14;;;;;;;15.38;9.70;;;;;;;23.46;58.01;100104.51;1697431;83;21016;-75
2021/07/28 05:04:42;;;;;;;13.90;9.73;;;;;;;23.50;57.84;100093.59;1754801;80;22454;-76
2021/07/28 05:07:10;;;;;;;14.93;10.90;;;;;;;23.59;57.58;100094.22;1748686;80;21048;-74
2021/07/28 05:09:36;;;;;;;29.12;11.10;;;;;;;23.68;57.51;100087.55;1747568;80;21075;-73
2021/07/28 05:12:04;;;;;;;19.27;10.13;;;;;;;23.77;58.13;100090.83;1739320;81;20984;-74
2021/07/28 05:14:30;;;;;;;12.80;10.18;;;;;;;23.87;58.48;100086.62;1732676;81;21028;-75
2021/07/28 05:16:57;;;;;;;16.90;10.45;;;;;;;23.97;58.78;100087.51;1743866;81;22212;-74
2021/07/28 05:19:23;;;;;;;13.98;10.72;;;;;;;24.05;58.32;100082.39;1739293;82;21074;-74
2021/07/28 05:21:50;;;;;;;25.05;11.18;;;;;;;24.12;57.35;100083.98;1739617;82;21469;-74
2021/07/28 05:24:16;;;;;;;19.77;11.33;;;;;;;24.20;56.91;100088.30;1740811;81;21038;-75
2021/07/28 05:26:43;;;;;;;35.13;11.68;;;;;;;24.28;56.81;100094.78;1756921;80;20999;-79
2021/07/28 05:29:09;;;;;;;25.35;12.05;;;;;;;24.36;56.58;100101.83;1725447;83;22543;-76
2021/07/28 05:31:36;;;;;;;21.25;11.10;;;;;;;24.43;56.70;100101.27;1725210;83;21384;-77
2021/07/28 05:34:03;;;;;;;16.45;10.72;;;;;;;24.48;56.55;100091.45;1755973;80;21364;-77
2021/07/28 05:36:29;;;;;;;21.40;11.12;;;;;;;24.53;56.52;100075.43;1756122;80;21521;-74
2021/07/28 05:38:56;;;;;;;27.80;11.28;;;;;;;24.60;56.73;100064.55;1755701;81;21609;-75
2021/07/28 05:41:22;;;;;;;20.82;10.72;;;;;;;24.64;56.04;100051.45;1731401;82;22201;-75
2021/07/28 05:43:49;;;;;;;25.50;11.18;;;;;;;24.64;55.65;100040.66;1747778;80;21005;-75
2021/07/28 05:46:15;;;;;;;21.82;10.75;;;;;;;24.69;55.71;100036.75;1736774;82;21444;-75
2021/07/28 05:48:41;;;;;;;31.77;11.50;;;;;;;24.77;55.73;100032.41;1737635;80;21391;-76
2021/07/28 05:51:08;;;;;;;28.55;11.03;;;;;;;24.85;55.78;100037.53;1762570;80;21491;-75
2021/07/28 05:53:36;;;;;;;25.82;11.73;;;;;;;24.93;55.75;100041.30;1778811;80;22658;-75
2021/07/28 05:56:04;;;;;;;27.50;12.98;;;;;;;25.00;55.77;100047.47;1766304;80;20952;-75
2021/07/28 05:58:31;;;;;;;30.37;14.90;;;;;;;25.08;55.49;100062.58;1772581;80;21008;-74
2021/07/28 06:00:58;;;;;;;30.43;16.10;;;;;;;25.10;54.97;100068.61;1754343;80;21065;-75
2021/07/28 06:03:24;;;;;;;34.30;15.83;;;;;;;25.10;54.88;100080.23;1747119;82;20965;-75
2021/07/28 06:05:50;;;;;;;35.40;15.70;;;;;;;25.13;54.96;100087.06;1756365;80;22820;-75
2021/07/28 06:08:17;;;;;;;38.70;18.23;;;;;;;25.14;54.77;100086.53;1757670;80;21411;-75
2021/07/28 06:10:46;;;;;;;47.43;17.98;;;;;;;25.12;54.65;100085.41;1752170;81;21036;-73
2021/07/28 06:13:13;;;;;;;40.50;19.17;;;;;;;25.14;54.94;100082.48;1764771;80;20973;-75
2021/07/28 06:15:40;;;;;;;38.85;18.65;;;;;;;25.17;55.14;100088.78;1748655;80;21004;-75
2021/07/28 06:18:07;;;;;;;36.15;19.55;;;;;;;25.18;55.14;100091.78;1741268;80;22199;-75
2021/07/28 06:20:34;;;;;;;44.33;18.32;;;;;;;25.18;55.27;100109.35;1738851;82;21461;-76
2021/07/28 06:23:00;;;;;;;26.07;15.43;;;;;;;25.17;55.23;100129.33;1719512;83;21562;-76
2021/07/28 06:25:27;;;;;;;24.52;13.48;;;;;;;25.08;55.75;100167.44;1736760;82;21051;-76
2021/07/28 06:27:53;;;;;;;23.57;11.03;;;;;;;24.91;56.50;100220.89;1752057;80;20968;-74
2021/07/28 06:30:20;;;;;;;19.98;10.72;;;;;;;24.68;56.22;100210.64;1768868;80;22201;-76
2021/07/28 06:32:46;;;;;;;16.90;10.50;;;;;;;24.48;56.03;100210.77;1753981;80;21449;-74
2021/07/28 06:35:13;;;;;;;21.42;10.08;;;;;;;24.36;56.17;100243.02;1775926;80;21045;-74
2021/07/28 06:37:41;;;;;;;16.12;10.88;;;;;;;24.28;56.59;100254.03;1780860;80;21460;-75
2021/07/28 06:40:10;;;;;;;16.77;10.40;;;;;;;24.17;57.00;100249.30;1778448;80;21087;-72
2021/07/28 06:42:36;;;;;;;13.13;9.95;;;;;;;24.05;57.39;100247.80;1765451;80;22478;-73
2021/07/28 06:45:04;;;;;;;15.08;10.70;;;;;;;23.98;57.78;100281.53;1765673;80;21323;-74
2021/07/28 06:47:31;;;;;;;13.25;10.30;;;;;;;23.89;58.27;100303.03;1749849;80;21530;-71
2021/07/28 06:49:59;;;;;;;19.40;10.80;;;;;;;23.79;58.81;100358.45;1743163;80;21028;-73
2021/07/28 06:52:26;;;;;;;16.27;10.20;;;;;;;23.66;60.26;100370.07;1773864;80;20952;-72
2021/07/28 06:54:54;;;;;;;12.15;9.58;;;;;;;23.48;62.25;100336.13;1748859;80;21500;-72
2021/07/28 06:57:21;;;;;;;10.30;7.40;;;;;;;23.18;63.54;100322.20;1681413;85;21025;-78
2021/07/28 06:59:47;;;;;;;11.22;7.08;;;;;;;22.90;64.63;100295.42;1713016;83;20973;-80
2021/07/28 07:02:13;;;;;;;8.25;5.62;;;;;;;22.62;66.25;100290.96;1728208;82;21481;-82
2021/07/28 07:04:40;;;;;;;6.45;4.58;;;;;;;22.35;67.01;100302.66;1713582;83;21018;-76
2021/07/28 07:07:08;;;;;;;7.40;4.00;;;;;;;22.12;67.31;100315.89;1745905;80;21852;-78
2021/07/28 07:09:35;;;;;;;12.25;4.92;;;;;;;21.90;68.29;100304.33;1734840;82;20937;-78
2021/07/28 07:12:02;;;;;;;11.25;4.00;;;;;;;21.68;69.21;100307.59;1735054;82;20976;-76
2021/07/28 07:14:29;;;;;;;10.58;3.85;;;;;;;21.47;69.60;100287.48;1706640;82;21046;-77
2021/07/28 07:16:58;;;;;;;10.32;3.90;;;;;;;21.30;69.97;100244.46;1741815;81;20989;-78
2021/07/28 07:19:25;;;;;;;13.85;4.50;;;;;;;21.14;70.16;100192.67;1741715;81;21864;-79
2021/07/28 07:21:52;;;;;;;9.33;3.90;;;;;;;21.10;70.50;100159.16;1741697;82;21052;-80
2021/07/28 07:24:19;;;;;;;8.88;3.83;;;;;;;21.13;71.15;100159.27;1741824;82;20989;-80
2021/07/28 07:26:47;;;;;;;8.53;3.87;;;;;;;21.07;71.71;100146.13;1741680;82;21040;-80
2021/07/28 07:29:13;;;;;;;11.78;4.25;;;;;;;21.02;72.26;100146.38;1741699;81;21001;-79
2021/07/28 07:31:41;;;;;;;12.55;4.60;;;;;;;21.02;72.75;100153.09;1741419;82;21690;-79
2021/07/28 07:34:08;;;;;;;9.55;5.75;;;;;;;21.00;72.93;100149.27;1741623;82;21045;-80
2021/07/28 07:36:35;;;;;;;11.35;5.58;;;;;;;21.01;72.77;100148.75;1741716;82;21002;-81
2021/07/28 07:39:03;;;;;;;12.07;5.62;;;;;;;21.06;72.53;100149.84;1741710;81;21002;-81
2021/07/28 07:41:31;;;;;;;16.15;8.48;;;;;;;21.13;72.19;100142.67;1741943;82;21017;-81
2021/07/28 07:44:01;;;;;;;12.33;5.40;;;;;;;21.22;71.98;100132.58;1741634;82;21822;-81
2021/07/28 07:46:28;;;;;;;9.23;4.97;;;;;;;21.28;72.11;100135.86;1741706;82;21614;-81
2021/07/28 07:48:56;;;;;;;9.28;4.87;;;;;;;21.34;72.38;100131.57;1741407;81;21346;-81
2021/07/28 07:51:26;;;;;;;10.20;5.50;;;;;;;21.41;72.71;100139.13;1741658;82;21091;-80
2021/07/28 07:53:53;;;;;;;7.87;4.85;;;;;;;21.48;73.10;100126.58;1741825;82;20981;-81
2021/07/28 07:56:19;;;;;;;11.60;4.80;;;;;;;21.54;73.37;100116.90;1744917;82;22183;-81
2021/07/28 07:58:46;;;;;;;8.98;4.97;;;;;;;21.61;73.62;100105.64;1750441;82;20989;-82
2021/07/28 08:01:13;;;;;;;10.28;5.95;;;;;;;21.71;73.91;100105.61;1750739;82;21044;-81
2021/07/28 08:03:41;;;;;;;8.08;4.85;;;;;;;21.82;74.16;100104.72;1750421;82;21460;-82
2021/07/28 08:06:09;;;;;;;10.35;5.33;;;;;;;21.93;74.41;100092.03;1745160;82;21039;-82
2021/07/28 08:08:37;;;;;;;10.28;5.12;;;;;;;22.05;74.50;100085.02;1733312;82;22452;-82
2021/07/28 08:11:09;;;;;;;9.88;5.20;;;;;;;22.21;74.49;100089.23;1733060;82;20951;-82
2021/07/28 08:13:36;;;;;;;7.17;4.55;;;;;;;22.34;74.42;100092.45;1733951;82;20958;-82
2021/07/28 08:16:16;;;;;;;9.58;4.62;;;;;;;22.46;74.42;100101.56;1746139;82;20953;-82
2021/07/28 08:18:43;;;;;;;10.30;4.87;;;;;;;22.57;74.40;100094.22;1750063;82;21008;-81
2021/07/28 08:21:10;;;;;;;7.55;5.12;;;;;;;22.67;74.19;100090.59;1749718;81;22804;-82
2021/07/28 08:23:38;;;;;;;11.73;4.97;;;;;;;22.76;73.84;100095.26;1717423;82;20953;-82
2021/07/28 08:26:04;;;;;;;10.65;5.42;;;;;;;22.83;73.76;100094.74;1743736;82;20966;-84
2021/07/28 08:28:32;;;;;;;9.35;4.92;;;;;;;22.90;73.28;100094.78;1743641;82;21009;-84
2021/07/28 08:30:58;;;;;;;8.15;5.37;;;;;;;22.98;73.56;100088.66;1743815;82;21075;-84
2021/07/28 08:33:26;;;;;;;7.28;5.15;;;;;;;23.11;73.50;100091.84;1743930;82;22464;-84
2021/07/28 08:35:58;;;;;;;9.55;5.60;;;;;;;23.26;73.17;100101.87;1743553;82;20934;-84
2021/07/28 08:38:25;;;;;;;8.95;5.47;;;;;;;23.41;72.92;100097.05;1743934;82;21348;-84
2021/07/28 08:41:00;;;;;;;8.83;5.10;;;;;;;23.54;72.15;100093.47;1743735;82;21583;-84
2021/07/28 08:43:29;;;;;;;8.75;5.60;;;;;;;23.69;71.62;100096.77;1743645;81;20938;-83
2021/07/28 08:46:03;;;;;;;10.68;6.10;;;;;;;23.85;70.79;100100.03;1743625;82;21855;-81
2021/07/28 08:48:29;;;;;;;10.88;6.10;;;;;;;23.98;70.21;100094.55;1743480;82;21052;-83
2021/07/28 08:51:00;;;;;;;9.03;6.50;;;;;;;24.12;69.37;100093.94;1743712;82;20996;-84
2021/07/28 08:53:27;;;;;;;10.93;7.28;;;;;;;24.24;68.57;100094.41;1743863;82;20980;-85
2021/07/28 08:55:56;;;;;;;14.65;7.97;;;;;;;24.40;68.48;100090.36;1715411;82;21004;-85
2021/07/28 08:58:24;;;;;;;15.08;8.23;;;;;;;24.59;68.63;100091.26;1739253;82;21827;-83
2021/07/28 09:00:51;;;;;;;10.28;7.08;;;;;;;24.84;69.16;100086.69;1737578;82;21003;-83
2021/07/28 09:03:18;;;;;;;12.07;7.50;;;;;;;25.14;68.77;100092.77;1737866;82;21007;-82
2021/07/28 09:05:47;;;;;;;16.52;7.37;;;;;;;25.42;67.98;100093.61;1737679;82;21014;-81
2021/07/28 09:08:28;;;;;;;14.65;7.05;;;;;;;25.69;66.67;100099.00;1737653;82;20995;-81
2021/07/28 09:11:00;;;;;;;11.08;6.95;;;;;;;25.92;65.03;100093.42;1737619;82;21865;-79
2021/07/28 09:13:41;;;;;;;9.53;6.37;;;;;;;26.14;64.45;100098.62;1736040;81;21125;-82
2021/07/28 09:16:11;;;;;;;9.23;6.50;;;;;;;26.36;63.54;100103.53;1720013;83;21423;-81
2021/07/28 09:18:44;;;;;;;13.83;6.05;;;;;;;26.59;63.30;100099.54;1720089;83;21534;-81
2021/07/28 09:21:27;;;;;;;8.93;6.03;;;;;;;26.77;62.17;100098.63;1726044;82;21048;-77
2021/07/28 09:24:08;;;;;;;8.08;6.15;;;;;;;26.96;62.28;100101.52;1718202;83;21773;-74
2021/07/28 09:26:45;;;;;;;9.38;5.58;;;;;;;27.10;60.64;100095.34;1716379;83;21052;-74
2021/07/28 09:29:32;;;;;;;7.65;5.58;;;;;;;27.23;60.42;100099.19;1716879;83;21060;-80
2021/07/28 09:32:06;;;;;;;8.15;5.80;;;;;;;27.33;59.66;100095.33;1734796;81;21022;-80
2021/07/28 09:34:37;;;;;;;7.55;5.50;;;;;;;27.45;59.91;100098.02;1743670;82;20965;-81
2021/07/28 09:37:10;;;;;;;7.17;5.05;;;;;;;27.60;59.25;100094.78;1743910;82;21825;-78
2021/07/28 09:39:38;;;;;;;;;;;;;;;27.73;58.17;100097.27;1746268;82;20826;-76
2021/07/28 09:42:16;;;;;;;9.33;6.05;;;;;;;27.85;58.52;100093.16;1743629;82;20135;-79
2021/07/28 09:44:45;;;;;;;11.05;5.75;;;;;;;27.93;57.83;100087.34;1743625;82;21051;-79
2021/07/28 09:47:17;;;;;;;10.15;6.15;;;;;;;28.08;58.27;100087.61;1743900;82;21041;-80
2021/07/28 09:49:46;;;;;;;8.58;5.97;;;;;;;28.21;57.23;100090.04;1743914;82;21818;-79
2021/07/28 09:52:32;;;;;;;7.95;6.25;;;;;;;28.25;56.51;100078.14;1743803;82;21010;-79
2021/07/28 09:54:58;;;;;;;9.80;5.97;;;;;;;28.37;56.46;100085.71;1743720;81;20961;-80
2021/07/28 09:57:26;;;;;;;11.12;6.97;;;;;;;28.48;56.71;100081.30;1748862;82;20957;-81
2021/07/28 10:00:08;;;;;;;9.90;6.53;;;;;;;28.58;56.26;100080.64;1749809;82;21372;-82
2021/07/28 10:02:35;;;;;;;12.05;6.53;;;;;;;28.63;56.37;100078.81;1750123;82;21826;-79
2021/07/28 10:05:03;;;;;;;10.35;6.97;;;;;;;28.73;56.71;100079.51;1714320;83;21462;-83
2021/07/28 10:07:31;;;;;;;10.50;6.60;;;;;;;28.83;57.07;100076.94;1722667;83;21011;-83
2021/07/28 10:10:05;;;;;;;11.80;7.17;;;;;;;29.02;56.68;100087.86;1722424;83;21037;-80
2021/07/28 10:12:36;;;;;;;12.73;7.83;;;;;;;29.09;56.06;100075.45;1722474;83;21054;-81
2021/07/28 10:15:10;;;;;;;11.08;6.70;;;;;;;29.22;54.44;100068.82;1722411;82;20983;-77
2021/07/28 10:17:41;;;;;;;10.68;6.12;;;;;;;29.22;54.44;100068.82;1722835;82;20995;-75
2021/07/28 10:20:10;;;;;;;9.75;6.58;;;;;;;29.39;53.51;100068.23;1722376;83;21024;-76
2021/07/28 10:22:37;;;;;;;11.83;7.25;;;;;;;29.50;53.02;100071.94;1730696;82;21038;-75
2021/07/28 10:25:08;;;;;;;10.25;7.22;;;;;;;29.65;52.41;100072.13;1737582;82;20971;-75
2021/07/28 10:27:48;;;;;;;14.45;7.65;;;;;;;29.65;52.41;100072.13;1737641;82;22434;-75
2021/07/28 10:30:14;;;;;;;11.00;7.28;;;;;;;29.58;53.63;100075.04;1736632;82;20959;-75
2021/07/28 10:32:43;;;;;;;11.60;7.80;;;;;;;29.63;54.08;100065.59;1737552;82;21066;-76
2021/07/28 10:35:23;;;;;;;12.35;8.23;;;;;;;29.80;54.41;100068.20;1737505;82;21011;-76
2021/07/28 10:37:52;;;;;;;10.88;8.00;;;;;;;29.80;54.41;100068.20;1737557;82;21019;-77
2021/07/28 10:40:31;;;;;;;14.45;7.75;;;;;;;29.79;54.15;100059.75;1747135;82;21845;-77
2021/07/28 10:43:02;;;;;;;9.18;7.62;;;;;;;29.79;54.60;100065.73;1749862;82;20979;-79
2021/07/28 10:45:56;;;;;;;9.63;7.05;;;;;;;29.82;54.50;100054.33;1749824;80;21524;-76
2021/07/28 10:48:50;;;;;;;10.05;7.10;;;;;;;30.02;54.03;100055.92;1749956;82;21500;-86
2021/07/28 10:51:52;;;;;;;10.20;6.42;;;;;;;30.19;53.62;100045.74;1749725;82;20975;-83
2021/07/28 10:54:19;;;;;;;9.80;6.75;;;;;;;30.32;51.30;100043.69;1749729;82;22681;-88
2021/07/28 10:57:06;;;;;;;9.18;6.00;;;;;;;30.41;50.72;100048.95;1742650;82;21204;-83
2021/07/28 10:59:41;;;;;;;10.30;6.62;;;;;;;30.52;49.73;100046.58;1737782;82;20986;-85
2021/07/28 11:02:09;;;;;;;12.93;6.17;;;;;;;30.67;50.73;100044.52;1737533;82;21441;-78
2021/07/28 11:04:36;;;;;;;10.72;6.60;;;;;;;30.85;49.74;100035.92;1737599;82;20991;-79
2021/07/28 11:07:03;;;;;;;10.35;6.40;;;;;;;30.89;48.74;100028.86;1737522;82;22692;-87
2021/07/28 11:09:30;;;;;;;13.08;6.58;;;;;;;30.88;47.98;100050.92;1737473;82;21054;-81
2021/07/28 11:11:58;;;;;;;11.73;6.53;;;;;;;30.80;48.16;100035.90;1737964;82;21598;-81
2021/07/28 11:14:26;;;;;;;10.10;6.78;;;;;;;30.80;48.88;100036.45;1740120;82;20955;-80
2021/07/28 11:16:53;;;;;;;11.12;6.47;;;;;;;30.94;49.19;100030.79;1741028;82;21007;-82
2021/07/28 11:19:20;;;;;;;10.93;7.00;;;;;;;31.14;49.14;100033.62;1740461;82;21842;-80
2021/07/28 11:21:47;;;;;;;12.30;6.83;;;;;;;31.33;49.16;100027.19;1740365;82;20951;-86
2021/07/28 11:24:14;;;;;;;13.88;6.83;;;;;;;31.49;48.35;100023.98;1740651;82;20952;-78